Time;durP1;ratioP1;P1;durP2;ratioP2;P2;SDS_P1;SDS_P2;PMS_P1;PMS_P2;Temp;Humidity;BMP_temperature;BMP_pressure;BME280_temperature;BME280_humidity;BME280_pressure;Samples;Min_cycle;Max_cycle;Signal;HPM_P1;HPM_P2
2021/07/01 00:01:48;;;;;;;36.92;20.88;;;13.80;99.90;;;;;;5005217;28;20050;-42
2021/07/01 00:04:14;;;;;;;43.42;22.27;;;13.80;99.90;;;;;;5009902;28;20510;-42
2021/07/01 00:06:42;;;;;;;32.25;20.90;;;13.80;99.90;;;;;;5009542;28;20103;-42
2021/07/01 00:09:17;;;;;;;37.90;20.52;;;13.70;99.90;;;;;;5009367;28;20565;-42
2021/07/01 00:11:46;;;;;;;33.63;19.73;;;13.80;99.90;;;;;;5005901;28;20050;-42
2021/07/01 00:14:13;;;;;;;37.83;19.88;;;13.80;99.90;;;;;;4990054;28;20576;-42
2021/07/01 00:16:42;;;;;;;46.22;21.13;;;13.80;99.90;;;;;;5009371;28;20042;-43
2021/07/01 00:19:08;;;;;;;41.20;21.73;;;13.70;99.90;;;;;;5007148;28;20085;-42
2021/07/01 00:21:35;;;;;;;34.80;19.02;;;13.80;99.90;;;;;;5008696;28;20065;-43
2021/07/01 00:24:04;;;;;;;37.75;21.23;;;13.80;99.90;;;;;;5009508;28;20057;-41
2021/07/01 00:26:30;;;;;;;41.28;19.45;;;13.80;99.90;;;;;;5008882;28;20064;-41
2021/07/01 00:29:01;;;;;;;42.47;20.88;;;13.70;99.90;;;;;;5005601;28;20050;-42
2021/07/01 00:31:28;;;;;;;35.85;19.98;;;13.80;99.90;;;;;;5007622;28;20061;-42
2021/07/01 00:33:58;;;;;;;42.58;21.05;;;13.70;99.90;;;;;;5009352;28;20061;-42
2021/07/01 00:36:24;;;;;;;33.17;19.60;;;13.70;99.90;;;;;;5009224;28;20058;-43
2021/07/01 00:38:53;;;;;;;39.30;19.95;;;13.70;99.90;;;;;;5008260;28;20065;-42
2021/07/01 00:41:20;;;;;;;38.15;20.35;;;13.70;99.90;;;;;;4991600;28;20369;-43
2021/07/01 00:43:47;;;;;;;40.92;20.90;;;13.70;99.90;;;;;;4991112;28;20746;-43
2021/07/01 00:46:14;;;;;;;44.08;20.40;;;13.70;99.90;;;;;;4993708;28;20062;-42
2021/07/01 00:48:40;;;;;;;33.00;20.50;;;13.70;99.90;;;;;;4991595;28;20046;-42
2021/07/01 00:51:07;;;;;;;38.53;21.08;;;13.70;99.90;;;;;;5009778;28;20062;-42
2021/07/01 00:53:34;;;;;;;46.42;21.80;;;13.70;99.90;;;;;;5013780;28;20060;-42
2021/07/01 00:56:03;;;;;;;36.13;19.80;;;13.70;99.90;;;;;;5007617;28;20058;-42
2021/07/01 00:58:30;;;;;;;40.67;21.17;;;13.70;99.90;;;;;;4990891;28;20600;-43
2021/07/01 01:01:01;;;;;;;35.50;19.80;;;13.80;99.90;;;;;;4977426;28;20058;-42
2021/07/01 01:03:39;;;;;;;37.30;21.10;;;13.70;99.90;;;;;;4988577;28;20507;-42
2021/07/01 01:06:07;;;;;;;40.17;19.38;;;13.70;99.90;;;;;;4998156;28;20100;-42
2021/07/01 01:08:40;;;;;;;43.38;20.50;;;13.70;99.90;;;;;;4991423;28;20057;-42
2021/07/01 01:11:09;;;;;;;40.45;20.98;;;13.70;99.90;;;;;;4991124;28;20058;-43
2021/07/01 01:13:43;;;;;;;43.65;20.88;;;13.70;99.90;;;;;;4987231;28;20097;-43
2021/07/01 01:16:30;;;;;;;37.40;18.98;;;13.70;99.90;;;;;;4990966;28;20046;-42
2021/07/01 01:19:00;;;;;;;40.47;20.52;;;13.70;99.90;;;;;;4988285;28;20053;-42
2021/07/01 01:21:29;;;;;;;40.42;22.15;;;13.70;99.90;;;;;;5006978;28;20092;-43
2021/07/01 01:24:01;;;;;;;48.03;21.58;;;13.70;99.90;;;;;;4992135;28;20046;-42
2021/07/01 01:26:30;;;;;;;41.45;20.73;;;13.70;99.90;;;;;;5007054;28;20081;-43
2021/07/01 01:28:57;;;;;;;42.42;19.27;;;13.80;99.90;;;;;;4989634;28;20085;-42
2021/07/01 01:31:28;;;;;;;35.80;20.70;;;13.80;99.90;;;;;;5006136;28;20569;-42
2021/07/01 01:33:56;;;;;;;39.47;20.23;;;13.80;99.90;;;;;;5007196;28;20054;-43
2021/07/01 01:36:22;;;;;;;40.75;20.05;;;13.80;99.90;;;;;;5007909;28;20081;-43
2021/07/01 01:38:51;;;;;;;46.05;21.23;;;13.80;99.90;;;;;;5007033;28;20069;-43
2021/07/01 01:41:55;;;;;;;48.58;20.67;;;13.80;99.90;;;;;;4993088;28;20541;-44
2021/07/01 01:44:22;;;;;;;37.03;19.38;;;13.80;99.90;;;;;;4970462;28;20047;-43
2021/07/01 01:46:51;;;;;;;41.70;18.80;;;13.80;99.90;;;;;;4986074;28;20498;-44
2021/07/01 01:49:19;;;;;;;35.15;18.48;;;13.80;99.90;;;;;;5012166;28;20072;-43
2021/07/01 01:51:48;;;;;;;39.47;19.17;;;13.80;99.90;;;;;;4989176;28;20612;-44
2021/07/01 01:54:17;;;;;;;39.08;17.60;;;13.80;99.90;;;;;;5001450;28;20042;-42
2021/07/01 01:56:47;;;;;;;38.05;18.88;;;13.80;99.90;;;;;;5007523;28;20046;-43
2021/07/01 01:59:24;;;;;;;41.60;18.92;;;13.80;99.90;;;;;;5006329;28;20057;-42
2021/07/01 02:02:09;;;;;;;35.83;19.13;;;13.80;99.90;;;;;;5007321;28;20060;-45
2021/07/01 02:04:58;;;;;;;43.45;18.85;;;13.80;99.90;;;;;;5004499;28;20054;-43
2021/07/01 02:07:27;;;;;;;33.40;18.77;;;13.80;99.90;;;;;;4995556;28;20104;-42
2021/07/01 02:10:09;;;;;;;35.90;17.48;;;13.80;99.90;;;;;;5007166;28;20141;-43
2021/07/01 02:12:41;;;;;;;36.13;18.45;;;13.80;99.90;;;;;;5006931;28;20053;-42
2021/07/01 02:15:10;;;;;;;37.42;18.05;;;13.80;99.90;;;;;;5003592;28;20050;-42
2021/07/01 02:17:46;;;;;;;33.22;17.67;;;13.80;99.90;;;;;;5007214;28;20089;-43
2021/07/01 02:20:15;;;;;;;44.03;18.48;;;13.80;99.90;;;;;;5012191;28;20046;-43
2021/07/01 02:22:43;;;;;;;40.17;19.45;;;13.80;99.90;;;;;;5006945;28;20697;-42
2021/07/01 02:25:10;;;;;;;33.90;18.90;;;13.80;99.90;;;;;;5004644;28;20298;-43
2021/07/01 02:27:40;;;;;;;37.60;20.23;;;13.80;99.90;;;;;;4989714;28;20169;-43
2021/07/01 02:30:12;;;;;;;38.95;19.83;;;13.80;99.90;;;;;;5007367;28;20057;-42
2021/07/01 02:32:39;;;;;;;38.78;20.58;;;13.80;99.90;;;;;;5006467;28;20065;-43
2021/07/01 02:35:07;;;;;;;39.10;19.90;;;13.80;99.90;;;;;;4978742;28;20062;-44
2021/07/01 02:37:52;;;;;;;34.97;20.02;;;13.80;99.90;;;;;;4987042;28;20050;-44
2021/07/01 02:40:34;;;;;;;39.53;20.27;;;13.70;99.90;;;;;;5005524;28;20156;-42
2021/07/01 02:43:07;;;;;;;37.65;20.70;;;13.70;99.90;;;;;;5003993;28;20148;-41
2021/07/01 02:45:33;;;;;;;41.70;22.15;;;13.70;99.90;;;;;;5004964;28;20057;-42
2021/07/01 02:48:18;;;;;;;39.03;20.80;;;13.70;99.90;;;;;;5002297;28;21746;-42
2021/07/01 02:50:48;;;;;;;43.45;21.02;;;13.70;99.90;;;;;;5006578;28;20065;-42
2021/07/01 02:53:15;;;;;;;39.13;20.88;;;13.70;99.90;;;;;;5005293;28;20045;-42
2021/07/01 02:55:48;;;;;;;41.45;21.52;;;13.70;99.90;;;;;;5012378;28;20053;-43
2021/07/01 02:58:17;;;;;;;37.60;21.17;;;13.70;99.90;;;;;;5003201;28;20049;-43
2021/07/01 03:01:02;;;;;;;41.67;20.30;;;13.70;99.90;;;;;;4986952;28;20070;-42
2021/07/01 03:03:31;;;;;;;39.75;22.30;;;13.70;99.90;;;;;;4984942;28;20065;-42
2021/07/01 03:06:05;;;;;;;38.92;21.30;;;13.60;99.90;;;;;;5003362;28;20057;-42
2021/07/01 03:08:35;;;;;;;35.70;20.65;;;13.60;99.90;;;;;;4995455;28;20136;-43
2021/07/01 03:11:01;;;;;;;41.72;22.55;;;13.70;99.90;;;;;;4997592;28;20050;-43
2021/07/01 03:13:27;;;;;;;42.42;21.40;;;13.70;99.90;;;;;;4989161;28;20163;-42
2021/07/01 03:15:57;;;;;;;45.03;22.70;;;13.70;99.90;;;;;;5005207;28;20053;-40
2021/07/01 03:18:25;;;;;;;42.80;22.48;;;13.70;99.90;;;;;;4993834;28;20117;-40
2021/07/01 03:21:10;;;;;;;45.03;24.25;;;13.70;99.90;;;;;;5006002;28;20050;-40
2021/07/01 03:23:54;;;;;;;40.03;22.45;;;13.70;99.90;;;;;;5008323;28;20520;-41
2021/07/01 03:26:21;;;;;;;42.58;23.27;;;13.70;99.90;;;;;;5005201;28;20045;-43
2021/07/01 03:28:51;;;;;;;48.53;24.30;;;13.70;99.90;;;;;;5012135;28;20046;-42
2021/07/01 03:31:25;;;;;;;46.88;22.65;;;13.70;99.90;;;;;;4988731;28;20098;-42
2021/07/01 03:33:51;;;;;;;41.00;23.38;;;13.70;99.90;;;;;;4987508;28;20073;-41
2021/07/01 03:36:18;;;;;;;40.75;22.45;;;13.70;99.90;;;;;;4973199;28;20149;-41
2021/07/01 03:39:18;;;;;;;43.35;24.00;;;13.70;99.90;;;;;;4947689;28;20156;-40
2021/07/01 03:41:59;;;;;;;40.78;22.48;;;13.70;99.90;;;;;;4913055;29;20090;-41
2021/07/01 03:44:27;;;;;;;42.17;22.65;;;13.70;99.90;;;;;;4929684;29;20051;-41
2021/07/01 03:46:53;;;;;;;43.88;22.98;;;13.70;99.90;;;;;;4929357;29;20063;-41
2021/07/01 03:49:20;;;;;;;44.20;23.27;;;13.70;99.90;;;;;;4932312;29;20054;-40
2021/07/01 03:51:47;;;;;;;43.42;23.40;;;13.70;99.90;;;;;;4948085;28;20120;-41
2021/07/01 03:54:25;;;;;;;46.13;23.65;;;13.80;99.90;;;;;;4931840;28;20523;-41
2021/07/01 03:56:52;;;;;;;38.10;23.48;;;13.80;99.90;;;;;;4932656;28;20541;-41
2021/07/01 03:59:25;;;;;;;39.70;23.02;;;13.80;99.90;;;;;;4956070;28;20439;-41
2021/07/01 04:02:10;;;;;;;43.50;23.10;;;13.80;99.90;;;;;;4954783;28;20059;-42
2021/07/01 04:04:36;;;;;;;44.72;22.42;;;13.80;99.90;;;;;;4947356;28;20055;-41
2021/07/01 04:07:05;;;;;;;42.28;24.05;;;13.80;99.90;;;;;;4948316;28;20101;-42
2021/07/01 04:09:35;;;;;;;42.67;22.30;;;13.80;99.90;;;;;;4948188;29;20134;-42
2021/07/01 04:12:21;;;;;;;38.10;22.00;;;13.80;99.90;;;;;;4895954;29;20044;-41
2021/07/01 04:15:17;;;;;;;36.13;21.67;;;13.80;99.90;;;;;;4854033;29;20072;-42
2021/07/01 04:18:12;;;;;;;37.70;21.77;;;13.90;99.90;;;;;;4872727;29;20059;-41
2021/07/01 04:21:11;;;;;;;38.20;21.08;;;13.90;99.90;;;;;;4818434;29;20431;-41
2021/07/01 04:24:00;;;;;;;34.47;19.80;;;13.90;99.90;;;;;;4802002;29;20094;-40
2021/07/01 04:26:27;;;;;;;43.22;22.30;;;13.90;99.90;;;;;;4802522;29;20047;-41
2021/07/01 04:28:54;;;;;;;34.72;20.95;;;13.90;99.90;;;;;;4811379;29;20070;-41
2021/07/01 04:31:22;;;;;;;35.85;20.40;;;13.90;99.90;;;;;;4813823;29;20082;-41
2021/07/01 04:33:52;;;;;;;35.83;19.73;;;13.90;99.90;;;;;;4806525;29;20081;-41
2021/07/01 04:36:21;;;;;;;37.25;20.58;;;14.00;99.90;;;;;;4799793;29;20598;-40
2021/07/01 04:38:47;;;;;;;33.13;20.95;;;14.00;99.90;;;;;;4807138;29;20098;-40
2021/07/01 04:41:20;;;;;;;;;;;14.00;99.90;;;;;;4812428;29;20065;-40
2021/07/01 04:43:48;;;;;;;41.58;20.98;;;13.90;99.90;;;;;;4789876;29;19958;-40
2021/07/01 04:46:15;;;;;;;33.63;20.88;;;14.00;99.90;;;;;;4798887;29;20071;-40
2021/07/01 04:48:50;;;;;;;31.52;19.63;;;14.00;99.90;;;;;;4810020;29;20124;-42
2021/07/01 04:51:16;;;;;;;33.45;21.67;;;14.00;99.90;;;;;;4834083;29;20079;-40
2021/07/01 04:54:20;;;;;;;30.45;19.48;;;14.00;99.90;;;;;;4888225;29;20613;-40
2021/07/01 04:57:23;;;;;;;;;;;14.00;99.90;;;;;;4881949;29;20059;-40
2021/07/01 04:59:52;;;;;;;32.90;21.17;;;14.10;99.90;;;;;;4874799;29;19938;-41
2021/07/01 05:02:41;;;;;;;36.85;21.40;;;14.10;99.90;;;;;;4908626;29;20104;-40
2021/07/01 05:05:20;;;;;;;34.45;21.10;;;14.10;99.90;;;;;;4886709;29;20060;-40
2021/07/01 05:07:53;;;;;;;32.60;20.52;;;14.10;99.90;;;;;;4893039;29;20088;-40
2021/07/01 05:10:21;;;;;;;33.28;20.80;;;14.10;99.90;;;;;;4879707;29;20133;-41
2021/07/01 05:13:08;;;;;;;33.05;20.23;;;14.10;99.90;;;;;;4884111;29;20056;-45
2021/07/01 05:15:34;;;;;;;33.33;20.00;;;14.10;99.90;;;;;;4890702;29;20075;-42
2021/07/01 05:18:04;;;;;;;31.60;21.23;;;14.20;99.90;;;;;;4891064;29;20056;-42
2021/07/01 05:20:31;;;;;;;32.92;20.23;;;14.20;99.90;;;;;;4894884;29;20805;-44
2021/07/01 05:23:16;;;;;;;40.90;23.10;;;14.20;99.90;;;;;;4878432;29;20045;-43
2021/07/01 05:26:05;;;;;;;37.22;22.20;;;14.30;99.90;;;;;;4889711;29;20117;-45
2021/07/01 05:28:50;;;;;;;41.50;23.77;;;14.30;99.90;;;;;;4875940;29;20056;-38
2021/07/01 05:31:37;;;;;;;39.28;23.35;;;14.30;99.90;;;;;;4830904;29;20503;-44
2021/07/01 05:34:23;;;;;;;44.00;24.58;;;14.30;99.90;;;;;;4870110;29;20049;-44
2021/07/01 05:36:51;;;;;;;132.73;107.80;;;14.30;99.90;;;;;;4870152;29;20048;-44
2021/07/01 05:39:21;;;;;;;48.40;27.08;;;14.40;99.90;;;;;;4855614;29;20510;-44
2021/07/01 05:41:47;;;;;;;49.30;27.70;;;14.30;99.90;;;;;;4855191;29;20102;-43
2021/07/01 05:44:14;;;;;;;54.38;35.28;;;14.40;99.90;;;;;;4883398;29;20060;-44
2021/07/01 05:46:49;;;;;;;54.97;27.23;;;14.40;99.90;;;;;;4840391;29;20063;-43
2021/07/01 05:49:15;;;;;;;51.03;26.95;;;14.40;99.90;;;;;;4863579;29;20059;-42
2021/07/01 05:51:44;;;;;;;47.63;27.50;;;14.40;99.90;;;;;;4871824;29;20814;-41
2021/07/01 05:54:23;;;;;;;58.50;29.85;;;14.40;99.90;;;;;;4875212;29;20174;-43
2021/07/01 05:56:52;;;;;;;54.22;31.67;;;14.40;99.90;;;;;;4866207;29;20053;-43
2021/07/01 05:59:24;;;;;;;55.75;30.58;;;14.40;99.90;;;;;;4870350;29;20529;-41
2021/07/01 06:01:51;;;;;;;53.40;28.67;;;14.50;99.90;;;;;;4871331;29;20117;-41
2021/07/01 06:04:17;;;;;;;48.55;28.25;;;14.50;99.90;;;;;;4906134;29;20050;-42
2021/07/01 06:07:05;;;;;;;55.55;28.30;;;14.50;99.90;;;;;;4907870;29;20052;-42
2021/07/01 06:09:38;;;;;;;58.55;30.83;;;14.50;99.90;;;;;;4991754;28;20414;-41
2021/07/01 06:12:04;;;;;;;55.78;29.85;;;14.50;99.90;;;;;;5007250;28;20073;-42
2021/07/01 06:14:34;;;;;;;56.10;30.13;;;14.60;99.90;;;;;;4990486;28;20571;-43
2021/07/01 06:17:05;;;;;;;53.53;28.58;;;14.60;99.90;;;;;;4999196;28;20045;-41
2021/07/01 06:19:31;;;;;;;52.85;31.48;;;14.60;99.90;;;;;;5007237;28;20049;-42
2021/07/01 06:22:01;;;;;;;47.28;27.35;;;14.60;99.90;;;;;;5005343;28;20140;-42
2021/07/01 06:24:30;;;;;;;54.35;31.42;;;14.60;99.90;;;;;;5009274;28;20402;-43
2021/07/01 06:27:01;;;;;;;58.55;28.45;;;14.60;99.90;;;;;;4991968;28;20045;-42
2021/07/01 06:29:27;;;;;;;57.50;28.67;;;14.60;99.90;;;;;;4993535;28;20496;-42
2021/07/01 06:31:54;;;;;;;49.88;27.65;;;14.60;99.90;;;;;;4992815;28;20058;-42
2021/07/01 06:34:20;;;;;;;53.53;28.95;;;14.60;99.90;;;;;;4994912;28;20096;-43
2021/07/01 06:36:50;;;;;;;52.33;29.27;;;14.60;99.90;;;;;;4987465;28;20069;-42
2021/07/01 06:39:37;;;;;;;48.95;27.58;;;14.60;99.90;;;;;;4989444;28;20064;-44
2021/07/01 06:42:23;;;;;;;54.92;29.00;;;14.60;99.90;;;;;;4992614;28;20514;-42
2021/07/01 06:45:09;;;;;;;213.82;191.77;;;14.60;99.90;;;;;;5004998;28;20156;-41
2021/07/01 06:47:56;;;;;;;55.78;30.90;;;14.60;99.90;;;;;;5006251;28;20912;-42
2021/07/01 06:50:41;;;;;;;50.72;28.85;;;14.70;99.90;;;;;;5004783;28;20085;-43
2021/07/01 06:53:30;;;;;;;56.22;31.50;;;14.70;99.90;;;;;;4987622;28;20632;-42
2021/07/01 06:56:15;;;;;;;47.13;29.20;;;14.70;99.90;;;;;;5003229;28;20092;-42
2021/07/01 06:58:44;;;;;;;48.72;28.98;;;14.70;99.90;;;;;;5006875;28;20071;-42
2021/07/01 07:01:13;;;;;;;49.13;28.52;;;14.80;99.90;;;;;;5003277;28;20050;-42
2021/07/01 07:03:44;;;;;;;56.30;32.35;;;14.80;99.90;;;;;;4999534;28;20552;-43
2021/07/01 07:06:14;;;;;;;53.47;30.60;;;14.80;99.90;;;;;;5002120;28;20046;-43
2021/07/01 07:08:44;;;;;;;46.08;28.02;;;14.80;99.90;;;;;;5008096;28;20060;-43
2021/07/01 07:11:10;;;;;;;50.92;31.52;;;14.80;99.90;;;;;;5016336;28;20045;-45
2021/07/01 07:13:39;;;;;;;52.45;30.35;;;14.90;99.90;;;;;;5009641;28;20567;-45
2021/07/01 07:16:06;;;;;;;54.15;30.77;;;14.90;99.90;;;;;;5013217;28;20124;-43
2021/07/01 07:18:36;;;;;;;54.20;30.15;;;14.90;99.90;;;;;;4996451;28;20066;-41
2021/07/01 07:21:14;;;;;;;50.85;30.58;;;14.90;99.90;;;;;;5009536;28;20057;-41
2021/07/01 07:23:41;;;;;;;54.38;30.75;;;14.90;99.90;;;;;;4993307;28;20399;-42
2021/07/01 07:26:18;;;;;;;54.90;31.23;;;14.90;99.90;;;;;;5010419;28;20053;-43
2021/07/01 07:28:49;;;;;;;56.47;30.17;;;14.90;99.90;;;;;;5004975;28;20054;-42
2021/07/01 07:31:31;;;;;;;58.17;31.98;;;15.00;99.90;;;;;;4988493;28;20046;-42
2021/07/01 07:34:04;;;;;;;52.65;29.52;;;15.10;99.90;;;;;;4991396;28;20136;-45
2021/07/01 07:36:36;;;;;;;55.33;30.15;;;15.10;99.90;;;;;;5004488;28;20046;-41
2021/07/01 07:39:08;;;;;;;;;;;15.20;99.90;;;;;;5006552;28;20761;-44
2021/07/01 07:41:34;;;;;;;56.58;31.63;;;15.30;99.90;;;;;;5010252;28;19936;-43
2021/07/01 07:44:05;;;;;;;50.45;31.13;;;15.40;99.90;;;;;;5008225;28;20046;-44
2021/07/01 07:46:34;;;;;;;;;;;15.60;99.90;;;;;;5002094;28;20562;-43
2021/07/01 07:49:05;;;;;;;62.47;37.95;;;15.70;99.90;;;;;;5006903;28;19964;-45
2021/07/01 07:51:33;;;;;;;51.97;32.35;;;15.80;99.90;;;;;;5009628;28;20062;-44
2021/07/01 07:54:07;;;;;;;47.90;29.83;;;15.90;99.90;;;;;;5016200;28;20193;-43
2021/07/01 07:56:37;;;;;;;43.13;28.48;;;16.00;99.90;;;;;;5012058;28;20066;-44
2021/07/01 07:59:09;;;;;;;50.25;29.92;;;16.00;99.90;;;;;;5007770;28;20037;-43
2021/07/01 08:01:39;;;;;;;49.55;34.55;;;16.10;99.90;;;;;;5005047;28;20054;-45
2021/07/01 08:04:10;;;;;;;45.20;29.63;;;16.00;99.90;;;;;;4990200;28;20124;-43
2021/07/01 08:06:38;;;;;;;36.90;27.60;;;16.10;99.90;;;;;;4995668;28;20054;-44
2021/07/01 08:09:06;;;;;;;41.88;27.50;;;16.10;99.90;;;;;;5002321;28;20061;-44
2021/07/01 08:11:35;;;;;;;43.78;27.30;;;16.10;99.90;;;;;;5011563;28;20041;-48
2021/07/01 08:14:04;;;;;;;40.63;27.95;;;16.20;99.90;;;;;;5001112;28;20060;-45
2021/07/01 08:16:31;;;;;;;51.30;31.73;;;16.20;99.90;;;;;;4989172;28;20082;-44
2021/07/01 08:19:00;;;;;;;39.13;27.77;;;16.40;99.90;;;;;;4994151;28;20047;-44
2021/07/01 08:21:30;;;;;;;41.30;27.85;;;16.30;99.90;;;;;;4992726;28;20129;-45
2021/07/01 08:23:58;;;;;;;45.90;28.25;;;16.40;99.90;;;;;;5007943;28;20077;-44
2021/07/01 08:26:30;;;;;;;37.70;26.52;;;16.40;99.90;;;;;;4993080;28;20100;-47
2021/07/01 08:28:57;;;;;;;43.33;30.42;;;16.40;99.90;;;;;;4993044;28;20619;-45
2021/07/01 08:31:24;;;;;;;42.20;28.92;;;16.40;99.90;;;;;;4988818;28;20471;-45
2021/07/01 08:33:52;;;;;;;42.15;28.20;;;16.40;99.90;;;;;;4999467;28;20128;-45
2021/07/01 08:36:22;;;;;;;39.45;27.88;;;16.50;99.90;;;;;;5004105;28;20049;-45
2021/07/01 08:38:51;;;;;;;39.43;28.47;;;16.60;99.90;;;;;;5008765;28;20647;-45
2021/07/01 08:41:28;;;;;;;38.67;27.67;;;16.60;99.90;;;;;;5012803;28;20395;-45
2021/07/01 08:44:00;;;;;;;39.25;27.10;;;16.50;99.90;;;;;;4996374;28;20050;-43
2021/07/01 08:46:33;;;;;;;43.90;28.25;;;16.60;99.90;;;;;;5009627;28;20144;-45
2021/07/01 08:49:08;;;;;;;37.65;28.02;;;16.60;99.90;;;;;;5009251;28;20084;-45
2021/07/01 08:51:40;;;;;;;38.00;26.95;;;16.70;99.90;;;;;;5006122;28;20088;-43
2021/07/01 08:54:12;;;;;;;;;;;16.80;99.90;;;;;;5012033;28;20045;-44
2021/07/01 08:56:43;;;;;;;37.75;26.70;;;16.80;99.90;;;;;;5002809;28;20031;-44
2021/07/01 08:59:10;;;;;;;35.38;27.13;;;16.90;99.90;;;;;;5007272;28;20042;-45
2021/07/01 09:01:38;;;;;;;40.13;27.55;;;17.00;99.90;;;;;;5010922;28;20674;-46
2021/07/01 09:04:09;;;;;;;40.28;26.73;;;17.20;99.90;;;;;;4994142;28;20050;-48
2021/07/01 09:06:39;;;;;;;37.47;29.17;;;17.20;99.90;;;;;;5000282;28;20140;-45
2021/07/01 09:09:10;;;;;;;40.75;27.08;;;17.20;99.90;;;;;;5009215;28;20049;-44
2021/07/01 09:11:43;;;;;;;40.53;28.05;;;17.50;99.90;;;;;;5008140;28;20050;-46
2021/07/01 09:14:14;;;;;;;38.53;27.58;;;17.70;99.90;;;;;;5003846;28;20057;-46
2021/07/01 09:16:43;;;;;;;40.60;27.25;;;17.90;99.90;;;;;;4993124;28;20514;-44
2021/07/01 09:19:09;;;;;;;36.67;26.75;;;18.10;99.90;;;;;;4992312;28;20565;-44
2021/07/01 09:21:36;;;;;;;33.05;24.83;;;18.10;99.90;;;;;;5004619;28;20046;-48
2021/07/01 09:24:08;;;;;;;41.70;27.38;;;18.00;99.90;;;;;;5005558;28;20057;-45
2021/07/01 09:26:42;;;;;;;33.33;25.88;;;18.00;99.90;;;;;;4990903;28;20100;-45
2021/07/01 09:29:09;;;;;;;34.15;25.88;;;18.00;99.90;;;;;;5005615;28;20103;-44
2021/07/01 09:31:40;;;;;;;31.33;24.98;;;18.00;99.90;;;;;;5005066;28;20053;-46
2021/07/01 09:34:11;;;;;;;34.15;24.25;;;18.20;99.90;;;;;;5008035;28;20171;-45
2021/07/01 09:36:42;;;;;;;35.45;25.33;;;18.20;99.90;;;;;;5007575;28;20054;-44
2021/07/01 09:39:11;;;;;;;33.55;24.52;;;18.40;99.90;;;;;;4995301;28;20058;-46
2021/07/01 09:41:41;;;;;;;33.47;25.17;;;18.60;99.90;;;;;;5013689;28;20048;-47
2021/07/01 09:44:15;;;;;;;31.40;23.77;;;18.60;99.90;;;;;;4991616;28;20161;-46
2021/07/01 09:46:47;;;;;;;31.33;24.20;;;18.60;99.90;;;;;;5005159;28;20046;-39
2021/07/01 09:49:26;;;;;;;36.03;24.45;;;18.70;99.90;;;;;;5001280;28;20046;-48
2021/07/01 09:51:56;;;;;;;36.25;24.92;;;18.90;99.90;;;;;;4998641;28;20144;-46
2021/07/01 09:54:28;;;;;;;32.08;24.20;;;18.90;99.90;;;;;;5007390;28;20124;-45
2021/07/01 09:57:06;;;;;;;30.00;23.38;;;18.90;99.90;;;;;;4996858;28;20076;-47
2021/07/01 10:00:06;;;;;;;33.90;23.98;;;18.80;99.90;;;;;;4988472;28;20049;-45
2021/07/01 10:02:42;;;;;;;31.10;23.75;;;18.70;99.90;;;;;;4999852;28;20510;-45
2021/07/01 10:05:30;;;;;;;36.15;23.35;;;18.60;99.90;;;;;;4994833;28;20125;-45
2021/07/01 10:08:04;;;;;;;30.65;23.27;;;18.50;99.90;;;;;;4988473;28;20049;-45
2021/07/01 10:10:45;;;;;;;;;;;18.40;99.90;;;;;;4997681;28;20509;-46
2021/07/01 10:13:19;;;;;;;35.58;24.88;;;18.30;99.90;;;;;;5005855;28;19936;-46
2021/07/01 10:15:52;;;;;;;34.13;23.30;;;18.40;99.90;;;;;;4998434;28;20074;-46
2021/07/01 10:18:26;;;;;;;31.58;24.02;;;18.40;99.90;;;;;;4997141;28;20054;-46
2021/07/01 10:20:56;;;;;;;;;;;18.40;99.90;;;;;;4995104;28;20054;-45
2021/07/01 10:23:33;;;;;;;30.02;23.05;;;18.50;99.90;;;;;;5002387;28;19929;-45
2021/07/01 10:26:11;;;;;;;32.00;24.30;;;18.60;99.90;;;;;;5008670;28;20402;-45
2021/07/01 10:28:37;;;;;;;32.28;23.83;;;18.80;99.90;;;;;;4984240;28;20057;-45
2021/07/01 10:31:08;;;;;;;32.55;25.20;;;19.00;99.90;;;;;;5010769;28;20049;-48
2021/07/01 10:33:41;;;;;;;32.33;22.52;;;19.10;99.90;;;;;;4994464;28;20045;-45
2021/07/01 10:36:20;;;;;;;31.60;22.80;;;19.10;99.90;;;;;;4988977;28;20066;-47
2021/07/01 10:38:53;;;;;;;30.88;22.15;;;19.10;99.90;;;;;;4984976;28;20052;-47
2021/07/01 10:41:38;;;;;;;32.95;25.70;;;19.20;99.90;;;;;;4992314;28;20129;-47
2021/07/01 10:44:23;;;;;;;26.42;20.42;;;19.50;99.90;;;;;;4992919;28;20417;-47
2021/07/01 10:46:52;;;;;;;31.17;22.58;;;19.60;99.90;;;;;;4998907;28;20136;-45
2021/07/01 10:49:34;;;;;;;28.20;22.77;;;19.80;99.90;;;;;;4986786;28;20053;-48
2021/07/01 10:52:06;;;;;;;28.48;20.38;;;19.80;99.90;;;;;;4989726;28;20050;-44
2021/07/01 10:54:58;;;;;;;27.10;22.67;;;19.70;99.90;;;;;;4984454;28;20050;-45
2021/07/01 10:57:29;;;;;;;31.25;20.83;;;19.70;99.90;;;;;;4998491;28;20073;-45
2021/07/01 11:00:04;;;;;;;33.10;23.02;;;19.70;99.90;;;;;;4976976;28;20058;-47
2021/07/01 11:02:35;;;;;;;27.23;20.85;;;19.50;99.90;;;;;;4997539;28;20058;-47
2021/07/01 11:05:06;;;;;;;28.20;20.58;;;19.40;99.90;;;;;;5003937;28;20422;-45
2021/07/01 11:07:44;;;;;;;26.20;20.83;;;19.30;99.90;;;;;;4993768;28;20042;-44
2021/07/01 11:10:31;;;;;;;25.13;21.80;;;19.30;99.90;;;;;;4990424;28;20073;-47
2021/07/01 11:13:05;;;;;;;26.52;20.75;;;19.30;99.90;;;;;;4991259;28;20050;-46
2021/07/01 11:15:32;;;;;;;27.13;20.50;;;19.40;99.90;;;;;;4994676;28;20045;-46
2021/07/01 11:18:10;;;;;;;30.92;21.65;;;19.50;99.90;;;;;;5000448;28;20130;-47
2021/07/01 11:20:37;;;;;;;27.58;20.75;;;19.70;99.90;;;;;;4974209;28;20050;-45
2021/07/01 11:23:06;;;;;;;27.30;21.48;;;19.80;99.90;;;;;;5006447;28;20407;-47
2021/07/01 11:25:42;;;;;;;25.15;20.20;;;19.80;99.90;;;;;;5002406;28;20053;-46
2021/07/01 11:28:29;;;;;;;23.73;20.30;;;19.90;99.90;;;;;;4994607;28;20066;-48
2021/07/01 11:31:02;;;;;;;26.88;21.20;;;19.90;99.90;;;;;;5000047;28;20069;-47
2021/07/01 11:33:34;;;;;;;29.25;22.50;;;19.80;99.90;;;;;;5020754;28;20168;-47
2021/07/01 11:36:14;;;;;;;25.75;20.92;;;20.00;99.90;;;;;;4998711;28;20145;-47
2021/07/01 11:38:47;;;;;;;24.02;19.80;;;20.00;99.90;;;;;;5007887;28;20502;-45
2021/07/01 11:41:16;;;;;;;27.92;20.42;;;20.00;99.90;;;;;;5003146;28;20422;-44
2021/07/01 11:43:46;;;;;;;23.88;18.85;;;20.10;99.90;;;;;;4996698;28;20092;-47
2021/07/01 11:46:18;;;;;;;27.55;19.58;;;20.30;99.90;;;;;;4996299;28;20054;-49
2021/07/01 11:48:52;;;;;;;25.70;19.95;;;20.40;99.90;;;;;;4998430;28;20050;-46
2021/07/01 11:51:22;;;;;;;21.48;17.70;;;20.50;99.90;;;;;;4992733;28;20061;-45
2021/07/01 11:53:49;;;;;;;19.45;17.35;;;20.30;99.90;;;;;;5003458;28;20041;-47
2021/07/01 11:56:22;;;;;;;25.50;17.80;;;20.20;99.90;;;;;;5004524;28;20046;-48
2021/07/01 11:58:49;;;;;;;20.20;16.63;;;20.20;99.90;;;;;;4994591;28;20080;-50
2021/07/01 12:01:18;;;;;;;21.08;17.33;;;20.20;99.90;;;;;;5006580;28;20042;-47
2021/07/01 12:03:50;;;;;;;23.45;18.90;;;20.10;99.90;;;;;;5007036;28;20077;-47
2021/07/01 12:07:05;;;;;;;20.55;17.45;;;20.10;99.90;;;;;;5001788;28;20062;-46
2021/07/01 12:09:41;;;;;;;21.60;18.40;;;20.20;99.90;;;;;;4945698;29;20051;-46
2021/07/01 12:12:12;;;;;;;21.63;17.98;;;20.10;99.90;;;;;;4945431;29;20050;-46
2021/07/01 12:14:47;;;;;;;36.00;32.13;;;20.30;99.90;;;;;;4936524;28;20061;-45
2021/07/01 12:17:56;;;;;;;20.40;17.95;;;20.40;99.90;;;;;;4944562;29;20568;-47
2021/07/01 12:20:31;;;;;;;21.60;18.08;;;20.50;99.90;;;;;;4916183;29;20047;-45
2021/07/01 12:22:59;;;;;;;19.73;17.05;;;20.70;99.90;;;;;;4945542;29;20047;-49
2021/07/01 12:25:31;;;;;;;22.20;16.50;;;20.70;99.90;;;;;;4945750;29;20055;-45
2021/07/01 12:28:15;;;;;;;18.58;16.55;;;20.80;99.90;;;;;;4947672;28;20128;-47
2021/07/01 12:31:00;;;;;;;23.15;20.58;;;20.90;99.90;;;;;;4949756;28;20055;-45
2021/07/01 12:33:48;;;;;;;19.20;17.17;;;21.20;99.90;;;;;;4947733;28;20051;-47
2021/07/01 12:36:32;;;;;;;21.40;19.02;;;21.20;99.90;;;;;;4946125;28;20051;-47
2021/07/01 12:39:08;;;;;;;19.17;17.02;;;21.30;99.90;;;;;;4945986;29;20111;-46
2021/07/01 12:41:55;;;;;;;21.00;16.65;;;21.40;99.90;;;;;;4947701;29;20077;-51
2021/07/01 12:44:30;;;;;;;19.58;16.27;;;21.40;99.90;;;;;;4996366;28;20129;-47
2021/07/01 12:47:25;;;;;;;18.80;16.80;;;21.60;99.90;;;;;;4998173;28;20055;-46
2021/07/01 12:50:01;;;;;;;38.05;33.92;;;21.70;99.90;;;;;;4997857;28;20066;-49
2021/07/01 12:52:39;;;;;;;19.20;14.35;;;21.80;99.90;;;;;;4991492;28;20062;-49
2021/07/01 12:55:16;;;;;;;19.60;17.52;;;21.80;99.90;;;;;;5005628;28;20107;-48
2021/07/01 12:57:44;;;;;;;17.30;13.07;;;21.90;99.90;;;;;;4991558;28;20865;-47
2021/07/01 13:00:16;;;;;;;15.75;13.32;;;22.00;99.90;;;;;;4989205;28;20073;-50